Time;durP1;ratioP1;P1;durP2;ratioP2;P2;SDS_P1;SDS_P2;PMS_P1;PMS_P2;Temp;Humidity;BMP_temperature;BMP_pressure;BME280_temperature;BME280_humidity;BME280_pressure;Samples;Min_cycle;Max_cycle;Signal;HPM_P1;HPM_P2
2022/01/20 00:04:16;;;;;;;17.38;3.33;;;;;;;;;;4995962;28;20022;-65
2022/01/20 00:09:52;;;;;;;12.70;2.38;;;;;;;;;;5000763;28;20029;-65
2022/01/20 00:23:16;;;;;;;20.27;2.45;;;;;;;;;;4983164;28;20057;-65
2022/01/20 00:28:27;;;;;;;17.73;2.40;;;;;;;;;;4994916;28;20109;-65
2022/01/20 00:31:07;;;;;;;16.38;3.75;;;;;;;;;;5006533;28;20038;-66
2022/01/20 00:33:41;;;;;;;12.45;2.80;;;;;;;;;;4985147;28;20026;-65
2022/01/20 00:38:34;;;;;;;16.08;2.30;;;;;;;;;;4980014;28;20380;-65
2022/01/20 00:41:00;;;;;;;13.32;2.50;;;;;;;;;;4987874;28;20100;-66
2022/01/20 00:43:26;;;;;;;17.95;2.60;;;;;;;;;;4983762;28;20022;-65
2022/01/20 00:45:53;;;;;;;11.00;2.40;;;;;;;;;;4999037;28;20114;-65
2022/01/20 00:48:20;;;;;;;17.08;2.90;;;;;;;;;;4990496;28;20089;-65
2022/01/20 00:50:46;;;;;;;17.83;2.80;;;;;;;;;;4992648;28;20442;-65
2022/01/20 00:53:12;;;;;;;14.77;2.38;;;;;;;;;;4982129;28;20030;-65
2022/01/20 00:55:39;;;;;;;20.20;4.30;;;;;;;;;;5000316;28;20030;-65
2022/01/20 00:58:06;;;;;;;23.73;3.00;;;;;;;;;;4992889;28;20062;-65
2022/01/20 01:00:33;;;;;;;14.93;2.83;;;;;;;;;;4993827;28;20027;-65
2022/01/20 01:02:59;;;;;;;17.33;2.35;;;;;;;;;;5005701;28;20025;-65
2022/01/20 01:05:27;;;;;;;15.55;2.75;;;;;;;;;;4983347;28;20048;-65
2022/01/20 01:07:56;;;;;;;8.65;2.58;;;;;;;;;;4983191;28;20027;-65
2022/01/20 01:10:26;;;;;;;18.52;2.75;;;;;;;;;;5011318;28;20037;-65
2022/01/20 01:15:24;;;;;;;18.60;3.35;;;;;;;;;;4978078;28;20487;-65
2022/01/20 01:21:08;;;;;;;21.00;3.53;;;;;;;;;;4996312;28;20486;-65
2022/01/20 01:23:21;;;;;;;22.45;4.47;;;;;;;;;;5003625;28;20076;-65
2022/01/20 01:25:47;;;;;;;18.23;2.65;;;;;;;;;;5002971;28;20445;-65
2022/01/20 01:28:13;;;;;;;8.55;2.10;;;;;;;;;;4992750;28;20428;-65
2022/01/20 01:33:07;;;;;;;11.93;1.85;;;;;;;;;;4983827;28;20030;-65
2022/01/20 01:35:38;;;;;;;7.43;1.92;;;;;;;;;;4987101;28;20026;-65
2022/01/20 01:40:31;;;;;;;10.05;2.30;;;;;;;;;;4980274;28;20049;-65
2022/01/20 01:42:57;;;;;;;14.52;1.85;;;;;;;;;;4991974;28;20085;-65
2022/01/20 01:45:27;;;;;;;11.88;2.60;;;;;;;;;;4985823;28;20565;-65
2022/01/20 01:47:53;;;;;;;15.00;2.13;;;;;;;;;;4979715;28;20125;-65
2022/01/20 01:50:22;;;;;;;11.65;1.88;;;;;;;;;;4986061;28;20018;-65
2022/01/20 01:52:48;;;;;;;8.40;1.95;;;;;;;;;;4993232;28;20398;-65
2022/01/20 01:55:15;;;;;;;13.98;1.85;;;;;;;;;;4984481;28;20491;-65
2022/01/20 01:57:43;;;;;;;11.40;1.60;;;;;;;;;;4966669;28;20073;-65
2022/01/20 02:00:11;;;;;;;11.40;1.80;;;;;;;;;;4987233;28;20474;-65
2022/01/20 02:02:43;;;;;;;7.30;1.52;;;;;;;;;;4980186;28;20594;-65
2022/01/20 02:05:16;;;;;;;;;;;;;;;;;;4979288;28;20022;-65
2022/01/20 02:18:58;;;;;;;14.18;2.08;;;;;;;;;;4965376;28;20033;-65
2022/01/20 02:21:46;;;;;;;7.55;1.67;;;;;;;;;;4982028;28;20026;-65
2022/01/20 02:24:13;;;;;;;9.48;1.42;;;;;;;;;;4991139;28;20225;-65
2022/01/20 02:26:39;;;;;;;14.07;1.95;;;;;;;;;;4979281;28;20026;-65
2022/01/20 02:29:06;;;;;;;3.97;1.33;;;;;;;;;;4990689;28;20033;-65
2022/01/20 02:31:32;;;;;;;10.93;1.83;;;;;;;;;;4985240;28;20022;-65
2022/01/20 02:33:58;;;;;;;8.93;1.92;;;;;;;;;;4983614;28;20026;-65
2022/01/20 02:36:27;;;;;;;8.40;2.53;;;;;;;;;;4992056;28;20037;-65
2022/01/20 02:39:07;;;;;;;12.48;1.83;;;;;;;;;;4965419;28;20033;-65
2022/01/20 02:47:15;;;;;;;17.58;2.25;;;;;;;;;;4985779;28;20216;-65
2022/01/20 02:49:41;;;;;;;16.17;2.08;;;;;;;;;;5002495;28;20022;-65
2022/01/20 02:52:07;;;;;;;13.40;2.03;;;;;;;;;;4989417;28;20041;-65
2022/01/20 02:54:33;;;;;;;10.77;2.47;;;;;;;;;;4978930;28;20062;-65
2022/01/20 02:57:00;;;;;;;16.10;2.83;;;;;;;;;;4991405;28;20023;-65
2022/01/20 02:59:27;;;;;;;17.30;3.45;;;;;;;;;;4983934;28;20482;-65
2022/01/20 03:01:53;;;;;;;11.18;2.60;;;;;;;;;;4985754;28;20045;-65
2022/01/20 03:04:24;;;;;;;12.73;2.45;;;;;;;;;;4980526;28;20038;-65
2022/01/20 03:06:51;;;;;;;16.35;2.08;;;;;;;;;;4991488;28;20041;-65
2022/01/20 03:09:17;;;;;;;13.25;2.55;;;;;;;;;;4981892;28;20041;-65
2022/01/20 03:11:43;;;;;;;15.63;2.30;;;;;;;;;;5002861;28;20026;-65
2022/01/20 03:14:10;;;;;;;22.58;2.80;;;;;;;;;;4989168;28;20022;-65
2022/01/20 03:16:37;;;;;;;9.52;2.13;;;;;;;;;;4978167;28;20104;-65
2022/01/20 03:19:03;;;;;;;11.13;2.38;;;;;;;;;;4980019;28;20022;-65
2022/01/20 03:21:30;;;;;;;14.55;2.05;;;;;;;;;;4982339;28;20085;-65
2022/01/20 03:23:56;;;;;;;10.48;1.92;;;;;;;;;;5004225;28;20498;-65
2022/01/20 03:26:22;;;;;;;11.85;1.73;;;;;;;;;;4980070;28;20033;-65
2022/01/20 03:28:50;;;;;;;7.03;2.08;;;;;;;;;;4991307;28;20030;-65
2022/01/20 03:31:17;;;;;;;29.52;3.45;;;;;;;;;;4980924;28;20033;-65
2022/01/20 03:33:44;;;;;;;10.65;2.40;;;;;;;;;;4979299;28;20077;-65
2022/01/20 03:36:10;;;;;;;16.27;2.40;;;;;;;;;;4979072;28;20487;-65
2022/01/20 03:38:54;;;;;;;13.23;2.30;;;;;;;;;;4995468;28;20081;-65
2022/01/20 03:41:21;;;;;;;12.63;2.42;;;;;;;;;;4988398;28;20396;-65
2022/01/20 03:43:52;;;;;;;14.85;3.35;;;;;;;;;;4985662;28;20034;-65
2022/01/20 03:46:18;;;;;;;9.65;2.10;;;;;;;;;;4980817;28;20461;-65
2022/01/20 03:48:54;;;;;;;15.27;2.00;;;;;;;;;;4990411;28;20060;-65
2022/01/20 03:51:22;;;;;;;12.77;2.13;;;;;;;;;;4975332;28;20041;-65
2022/01/20 03:53:53;;;;;;;13.57;2.42;;;;;;;;;;4984875;28;20406;-65
2022/01/20 03:56:22;;;;;;;14.95;2.63;;;;;;;;;;4980278;28;20085;-65
2022/01/20 03:58:58;;;;;;;9.35;2.03;;;;;;;;;;4990906;28;20026;-65
2022/01/20 04:01:25;;;;;;;8.82;2.05;;;;;;;;;;4981777;28;20496;-65
2022/01/20 04:04:08;;;;;;;10.63;2.15;;;;;;;;;;4990812;28;20022;-65
2022/01/20 04:06:49;;;;;;;13.32;2.33;;;;;;;;;;4961710;28;20026;-65
2022/01/20 04:09:15;;;;;;;17.02;2.38;;;;;;;;;;4989326;28;20028;-65
2022/01/20 04:11:41;;;;;;;16.23;2.67;;;;;;;;;;4974935;28;20053;-65
2022/01/20 04:14:07;;;;;;;19.50;2.85;;;;;;;;;;4987056;28;20160;-65
2022/01/20 04:16:51;;;;;;;11.77;1.73;;;;;;;;;;4978763;28;20026;-65
2022/01/20 04:19:18;;;;;;;11.88;1.75;;;;;;;;;;4990826;28;20052;-65
2022/01/20 04:21:45;;;;;;;6.93;1.73;;;;;;;;;;4974365;28;20578;-65
2022/01/20 04:24:11;;;;;;;17.20;2.25;;;;;;;;;;4987044;28;20505;-65
2022/01/20 04:26:39;;;;;;;13.18;1.95;;;;;;;;;;4992586;28;20030;-65
2022/01/20 04:29:07;;;;;;;14.60;2.42;;;;;;;;;;5006638;28;20520;-65
2022/01/20 04:31:35;;;;;;;11.75;1.70;;;;;;;;;;4982214;28;20405;-65
2022/01/20 04:34:01;;;;;;;19.42;2.17;;;;;;;;;;4983359;28;20403;-65
2022/01/20 04:36:31;;;;;;;15.30;2.03;;;;;;;;;;4989012;28;20406;-65
2022/01/20 04:39:01;;;;;;;12.63;2.58;;;;;;;;;;4977461;28;20711;-65
2022/01/20 04:41:30;;;;;;;14.40;2.60;;;;;;;;;;4967896;28;20051;-65
2022/01/20 04:43:59;;;;;;;13.35;2.00;;;;;;;;;;4985912;28;20034;-65
2022/01/20 04:59:41;;;;;;;8.93;1.70;;;;;;;;;;4905692;29;20142;-65
2022/01/20 05:02:07;;;;;;;15.57;1.98;;;;;;;;;;4894139;29;20077;-65
2022/01/20 05:04:46;;;;;;;11.60;2.55;;;;;;;;;;4895576;29;20072;-65
2022/01/20 05:07:27;;;;;;;14.52;3.28;;;;;;;;;;4915783;29;20047;-65
2022/01/20 05:09:56;;;;;;;13.82;2.10;;;;;;;;;;4898518;29;20410;-65
2022/01/20 05:12:48;;;;;;;10.70;1.83;;;;;;;;;;4910632;29;20091;-65
2022/01/20 05:15:13;;;;;;;8.13;1.83;;;;;;;;;;4901388;29;20501;-65
2022/01/20 05:17:39;;;;;;;9.30;1.48;;;;;;;;;;4906081;29;20116;-65
2022/01/20 05:20:07;;;;;;;6.53;1.85;;;;;;;;;;4906052;29;20035;-65
2022/01/20 05:22:33;;;;;;;9.57;2.55;;;;;;;;;;4897552;29;20032;-65
2022/01/20 05:25:03;;;;;;;13.75;2.05;;;;;;;;;;4899584;29;20196;-65
2022/01/20 05:27:30;;;;;;;7.35;2.03;;;;;;;;;;4907234;29;20124;-65
2022/01/20 05:29:56;;;;;;;12.50;1.80;;;;;;;;;;4906325;29;20509;-65
2022/01/20 05:32:24;;;;;;;8.25;1.40;;;;;;;;;;4900284;29;20044;-65
2022/01/20 05:34:51;;;;;;;11.98;1.40;;;;;;;;;;4979018;28;20042;-65
2022/01/20 05:37:17;;;;;;;14.73;2.00;;;;;;;;;;4981989;28;20080;-65
2022/01/20 05:39:44;;;;;;;10.50;1.88;;;;;;;;;;4988914;28;20030;-65
2022/01/20 05:42:14;;;;;;;11.93;1.58;;;;;;;;;;4989415;28;20030;-65
2022/01/20 05:44:51;;;;;;;11.73;1.80;;;;;;;;;;4980664;28;20117;-65
2022/01/20 05:47:26;;;;;;;8.40;1.50;;;;;;;;;;4992812;28;20033;-65
2022/01/20 05:50:11;;;;;;;18.02;2.42;;;;;;;;;;4996689;28;20453;-65
2022/01/20 05:52:41;;;;;;;20.80;5.50;;;;;;;;;;4991961;28;20030;-65
2022/01/20 05:55:18;;;;;;;9.60;1.70;;;;;;;;;;4980408;28;20065;-65
2022/01/20 05:57:46;;;;;;;13.75;2.53;;;;;;;;;;4989248;28;20085;-65
2022/01/20 06:00:15;;;;;;;9.82;1.85;;;;;;;;;;4988534;28;20084;-65
2022/01/20 06:05:35;;;;;;;8.60;1.77;;;;;;;;;;4972316;28;20053;-65
2022/01/20 06:08:01;;;;;;;17.92;2.80;;;;;;;;;;4970196;28;20014;-65
2022/01/20 06:10:28;;;;;;;15.93;2.50;;;;;;;;;;4983058;28;20034;-65
2022/01/20 06:13:04;;;;;;;17.40;3.28;;;;;;;;;;4984464;28;20066;-65
2022/01/20 06:15:31;;;;;;;15.27;3.15;;;;;;;;;;4977391;28;20477;-65
2022/01/20 06:17:57;;;;;;;16.20;2.60;;;;;;;;;;4981295;28;20053;-65
2022/01/20 06:20:24;;;;;;;13.63;2.17;;;;;;;;;;4981454;28;20026;-65
2022/01/20 06:22:50;;;;;;;11.13;1.98;;;;;;;;;;4973180;28;20148;-65
2022/01/20 06:25:16;;;;;;;13.10;2.17;;;;;;;;;;5003179;28;20084;-65
2022/01/20 06:27:43;;;;;;;16.50;2.28;;;;;;;;;;4963389;28;20022;-65
2022/01/20 06:30:09;;;;;;;10.02;1.88;;;;;;;;;;5002505;28;20029;-65
2022/01/20 06:32:36;;;;;;;8.25;1.63;;;;;;;;;;4975233;28;20041;-65
2022/01/20 06:35:04;;;;;;;13.43;2.05;;;;;;;;;;4977627;28;20048;-65
2022/01/20 06:37:30;;;;;;;12.82;2.78;;;;;;;;;;4998567;28;20030;-65
2022/01/20 06:39:56;;;;;;;14.32;2.70;;;;;;;;;;4984932;28;20026;-65
2022/01/20 06:42:22;;;;;;;22.70;2.15;;;;;;;;;;4993605;28;20499;-64
2022/01/20 06:44:49;;;;;;;13.50;3.67;;;;;;;;;;5000258;28;20029;-65
2022/01/20 06:47:15;;;;;;;11.27;1.98;;;;;;;;;;4989300;28;20122;-65
2022/01/20 06:49:41;;;;;;;7.88;2.03;;;;;;;;;;4987135;28;20064;-66
2022/01/20 06:52:08;;;;;;;12.25;2.13;;;;;;;;;;4978920;28;20542;-65
2022/01/20 06:54:36;;;;;;;12.18;2.05;;;;;;;;;;4985537;28;20022;-66
2022/01/20 06:57:04;;;;;;;8.98;2.28;;;;;;;;;;4966645;28;20133;-65
2022/01/20 06:59:30;;;;;;;21.00;2.33;;;;;;;;;;4986327;28;20058;-66
2022/01/20 07:01:56;;;;;;;16.75;3.20;;;;;;;;;;4982837;28;20414;-66
2022/01/20 07:04:27;;;;;;;10.85;2.65;;;;;;;;;;4983102;28;20027;-66
2022/01/20 07:06:54;;;;;;;11.90;2.38;;;;;;;;;;4989063;28;20033;-66
2022/01/20 07:09:39;;;;;;;10.85;2.42;;;;;;;;;;4998980;28;20033;-66
2022/01/20 07:12:24;;;;;;;15.15;2.30;;;;;;;;;;4994113;28;20105;-66
2022/01/20 07:14:50;;;;;;;17.88;2.13;;;;;;;;;;5001326;28;20095;-66
2022/01/20 07:17:16;;;;;;;7.65;2.05;;;;;;;;;;4991728;28;20026;-66
2022/01/20 07:19:48;;;;;;;7.68;1.80;;;;;;;;;;4969605;28;20032;-66
2022/01/20 07:22:16;;;;;;;9.02;1.70;;;;;;;;;;4985737;28;20072;-66
2022/01/20 07:24:43;;;;;;;13.73;2.50;;;;;;;;;;4981779;28;20026;-66
2022/01/20 07:27:18;;;;;;;9.15;1.80;;;;;;;;;;4991625;28;20031;-66
2022/01/20 07:29:44;;;;;;;13.88;1.85;;;;;;;;;;4977808;28;20034;-66
2022/01/20 07:32:11;;;;;;;14.13;2.33;;;;;;;;;;4975574;28;20026;-66
2022/01/20 07:34:37;;;;;;;8.13;1.85;;;;;;;;;;4964361;28;20031;-66
2022/01/20 07:37:05;;;;;;;16.75;2.15;;;;;;;;;;4969573;28;20027;-66
2022/01/20 07:39:32;;;;;;;14.85;1.95;;;;;;;;;;4981086;28;20026;-66
2022/01/20 07:41:58;;;;;;;12.30;2.33;;;;;;;;;;4998454;28;20042;-66
2022/01/20 07:44:42;;;;;;;11.82;1.92;;;;;;;;;;4994261;28;20032;-66
2022/01/20 07:47:22;;;;;;;16.52;3.30;;;;;;;;;;4974560;28;20058;-65
2022/01/20 07:49:48;;;;;;;16.73;3.15;;;;;;;;;;4991192;28;20026;-66
2022/01/20 07:52:14;;;;;;;13.13;2.75;;;;;;;;;;4971681;28;20587;-69
2022/01/20 07:54:41;;;;;;;18.17;2.72;;;;;;;;;;4968772;28;20517;-69
2022/01/20 07:57:09;;;;;;;11.65;2.20;;;;;;;;;;4974792;28;21246;-69
2022/01/20 07:59:36;;;;;;;13.13;2.47;;;;;;;;;;4971018;28;20482;-69
2022/01/20 08:02:02;;;;;;;14.27;3.03;;;;;;;;;;4953680;28;20065;-69
2022/01/20 08:04:28;;;;;;;17.85;2.67;;;;;;;;;;4978360;28;20503;-69
2022/01/20 08:06:58;;;;;;;16.55;3.00;;;;;;;;;;4978161;28;20069;-69
2022/01/20 08:09:24;;;;;;;18.50;2.70;;;;;;;;;;4978283;28;20027;-69
2022/01/20 08:11:56;;;;;;;12.23;2.72;;;;;;;;;;4993367;28;20049;-69
2022/01/20 08:14:40;;;;;;;13.15;2.72;;;;;;;;;;4974805;28;20117;-69
2022/01/20 08:17:09;;;;;;;11.63;2.28;;;;;;;;;;4979093;28;20030;-69
2022/01/20 08:19:40;;;;;;;9.95;2.67;;;;;;;;;;4970490;28;20494;-69
2022/01/20 08:22:07;;;;;;;13.50;2.65;;;;;;;;;;4982136;28;20475;-68
2022/01/20 08:24:33;;;;;;;18.42;2.30;;;;;;;;;;4976368;28;20058;-68
2022/01/20 08:26:59;;;;;;;11.57;2.17;;;;;;;;;;4986768;28;20037;-68
2022/01/20 08:29:26;;;;;;;16.48;2.25;;;;;;;;;;4977376;28;20034;-68
2022/01/20 08:31:53;;;;;;;5.85;2.47;;;;;;;;;;4978281;28;20065;-69
2022/01/20 08:34:29;;;;;;;12.13;2.63;;;;;;;;;;4983268;28;20450;-69
2022/01/20 08:37:21;;;;;;;15.57;3.25;;;;;;;;;;4992616;28;20430;-69
2022/01/20 08:39:48;;;;;;;22.83;1.88;;;;;;;;;;4977256;28;20511;-68
2022/01/20 08:42:14;;;;;;;13.98;2.40;;;;;;;;;;4974626;28;20042;-69
2022/01/20 08:44:41;;;;;;;15.98;3.75;;;;;;;;;;4980930;28;20018;-68
2022/01/20 08:47:17;;;;;;;16.02;2.70;;;;;;;;;;4969548;28;20138;-69
2022/01/20 08:49:46;;;;;;;15.02;2.28;;;;;;;;;;4970050;28;20026;-68
2022/01/20 08:52:12;;;;;;;16.58;3.67;;;;;;;;;;4979485;28;20038;-68
2022/01/20 08:54:45;;;;;;;13.30;2.85;;;;;;;;;;4973336;28;20034;-68
2022/01/20 08:57:21;;;;;;;15.93;3.35;;;;;;;;;;4975240;28;20065;-68
2022/01/20 08:59:47;;;;;;;12.27;2.85;;;;;;;;;;4989101;28;21046;-68
2022/01/20 09:02:13;;;;;;;15.25;2.70;;;;;;;;;;4978462;28;20026;-68
2022/01/20 09:04:40;;;;;;;17.58;2.88;;;;;;;;;;4977271;28;20434;-68
2022/01/20 09:07:33;;;;;;;23.85;4.32;;;;;;;;;;4975612;28;20062;-68
2022/01/20 09:10:03;;;;;;;14.82;2.70;;;;;;;;;;4973819;28;20022;-67
2022/01/20 09:17:48;;;;;;;16.17;3.22;;;;;;;;;;4982257;28;20423;-68
2022/01/20 09:20:14;;;;;;;11.93;2.47;;;;;;;;;;4991781;28;20524;-68
2022/01/20 09:22:41;;;;;;;15.73;2.40;;;;;;;;;;4973776;28;20561;-69
2022/01/20 09:25:08;;;;;;;15.80;2.83;;;;;;;;;;4977972;28;20076;-68
2022/01/20 09:27:37;;;;;;;17.45;2.65;;;;;;;;;;4974567;28;20026;-68
2022/01/20 09:30:04;;;;;;;17.30;2.25;;;;;;;;;;4982766;28;20482;-68
2022/01/20 09:32:34;;;;;;;14.93;2.53;;;;;;;;;;4979691;28;20030;-68
2022/01/20 09:35:00;;;;;;;10.93;2.03;;;;;;;;;;4987176;28;20486;-65
2022/01/20 09:37:27;;;;;;;14.57;2.13;;;;;;;;;;4979631;28;20033;-65
2022/01/20 09:39:53;;;;;;;12.93;2.67;;;;;;;;;;4975601;28;20037;-65
2022/01/20 09:42:36;;;;;;;8.85;1.50;;;;;;;;;;4974480;28;20022;-65
2022/01/20 09:45:02;;;;;;;21.13;2.22;;;;;;;;;;4975253;28;20023;-65
2022/01/20 09:47:28;;;;;;;6.53;2.10;;;;;;;;;;4996746;28;20027;-65
2022/01/20 09:50:11;;;;;;;17.33;2.85;;;;;;;;;;4991746;28;20027;-65
2022/01/20 09:52:49;;;;;;;15.98;2.45;;;;;;;;;;4984082;28;20030;-65
2022/01/20 09:55:45;;;;;;;10.75;2.45;;;;;;;;;;4916917;29;20673;-65
2022/01/20 09:58:12;;;;;;;11.60;2.08;;;;;;;;;;4918034;29;20107;-65
2022/01/20 10:00:39;;;;;;;13.70;3.45;;;;;;;;;;4916368;29;20055;-65
2022/01/20 10:03:10;;;;;;;16.15;2.25;;;;;;;;;;4917780;29;20554;-65
2022/01/20 10:05:38;;;;;;;8.70;2.05;;;;;;;;;;4920393;29;20067;-65
2022/01/20 10:08:14;;;;;;;11.20;2.30;;;;;;;;;;4922011;29;20028;-65
2022/01/20 10:10:51;;;;;;;14.00;1.98;;;;;;;;;;4900558;29;20401;-65
2022/01/20 10:13:24;;;;;;;17.40;2.92;;;;;;;;;;4915874;29;20040;-65
2022/01/20 10:16:04;;;;;;;14.93;2.20;;;;;;;;;;4913155;29;20076;-65
2022/01/20 10:18:57;;;;;;;15.50;3.30;;;;;;;;;;4920140;29;20156;-65
2022/01/20 10:21:37;;;;;;;17.38;2.13;;;;;;;;;;4923061;29;20036;-65
2022/01/20 10:24:27;;;;;;;22.08;2.72;;;;;;;;;;4868995;29;20041;-65
2022/01/20 10:27:19;;;;;;;13.55;1.80;;;;;;;;;;4870894;29;20037;-65
2022/01/20 10:29:56;;;;;;;13.15;2.08;;;;;;;;;;4869103;29;20044;-65
2022/01/20 10:32:22;;;;;;;12.82;3.10;;;;;;;;;;4896090;29;20043;-65
2022/01/20 10:34:49;;;;;;;9.38;1.88;;;;;;;;;;4903735;29;20091;-65
2022/01/20 10:37:23;;;;;;;11.63;2.17;;;;;;;;;;4905300;29;20416;-65
2022/01/20 10:40:18;;;;;;;17.05;2.20;;;;;;;;;;4905391;29;20056;-65
2022/01/20 10:42:52;;;;;;;13.95;3.30;;;;;;;;;;4907714;29;20142;-65
2022/01/20 10:45:22;;;;;;;11.65;2.40;;;;;;;;;;4906424;29;20040;-65
2022/01/20 10:47:50;;;;;;;14.27;2.78;;;;;;;;;;4908444;29;20075;-64
2022/01/20 10:50:21;;;;;;;18.50;4.50;;;;;;;;;;4904804;29;20124;-64
2022/01/20 10:52:52;;;;;;;15.38;2.35;;;;;;;;;;4904447;29;20123;-64
2022/01/20 10:55:25;;;;;;;18.35;2.95;;;;;;;;;;4906759;29;20044;-64
2022/01/20 10:57:53;;;;;;;14.57;2.97;;;;;;;;;;4909764;29;20056;-64
2022/01/20 11:00:21;;;;;;;25.50;2.80;;;;;;;;;;4923695;28;20122;-64
2022/01/20 11:02:56;;;;;;;17.10;2.38;;;;;;;;;;4991759;28;20064;-64
2022/01/20 11:05:24;;;;;;;12.40;2.42;;;;;;;;;;4977098;28;20081;-64
2022/01/20 11:07:51;;;;;;;19.85;5.07;;;;;;;;;;4977935;28;20022;-64
2022/01/20 11:10:19;;;;;;;8.50;2.10;;;;;;;;;;4985126;28;20029;-64
2022/01/20 11:13:13;;;;;;;11.38;3.53;;;;;;;;;;4995397;28;20117;-64
2022/01/20 11:15:44;;;;;;;21.02;2.80;;;;;;;;;;4972880;28;20533;-64
2022/01/20 11:18:10;;;;;;;12.82;2.75;;;;;;;;;;4977904;28;20142;-64
2022/01/20 11:20:41;;;;;;;13.93;2.40;;;;;;;;;;4974058;28;20038;-67
2022/01/20 11:23:08;;;;;;;17.30;4.40;;;;;;;;;;4980594;28;20525;-67
2022/01/20 11:25:46;;;;;;;16.95;3.92;;;;;;;;;;4970380;28;20080;-68
2022/01/20 11:28:31;;;;;;;19.80;3.08;;;;;;;;;;4993422;28;20081;-67
2022/01/20 11:31:04;;;;;;;22.10;2.80;;;;;;;;;;4974270;28;20039;-67
2022/01/20 11:33:49;;;;;;;18.15;2.45;;;;;;;;;;4991634;28;20048;-67
2022/01/20 11:36:25;;;;;;;16.88;2.65;;;;;;;;;;4991607;28;20034;-67
2022/01/20 11:38:54;;;;;;;11.48;2.35;;;;;;;;;;4992691;28;20041;-67
2022/01/20 11:41:22;;;;;;;10.65;1.80;;;;;;;;;;4992457;28;20046;-67
2022/01/20 11:43:49;;;;;;;8.52;2.22;;;;;;;;;;5007762;28;20026;-67
2022/01/20 11:46:17;;;;;;;18.35;3.03;;;;;;;;;;4998478;28;20536;-67
2022/01/20 11:48:53;;;;;;;12.75;2.42;;;;;;;;;;4993411;28;20023;-67
2022/01/20 11:51:20;;;;;;;15.82;3.13;;;;;;;;;;4993026;28;20368;-67
2022/01/20 11:53:59;;;;;;;8.48;2.20;;;;;;;;;;5007809;28;20509;-67
2022/01/20 11:56:44;;;;;;;17.60;2.75;;;;;;;;;;4992762;28;20390;-67
2022/01/20 11:59:12;;;;;;;19.70;2.80;;;;;;;;;;5007617;28;20080;-67
2022/01/20 12:01:52;;;;;;;14.23;2.55;;;;;;;;;;4994660;28;20041;-67
2022/01/20 12:04:30;;;;;;;17.83;2.80;;;;;;;;;;4993025;28;20034;-67
2022/01/20 12:06:56;;;;;;;20.52;2.80;;;;;;;;;;4976074;28;20507;-67
2022/01/20 12:09:30;;;;;;;16.50;2.80;;;;;;;;;;4986283;28;20102;-67
2022/01/20 12:11:56;;;;;;;18.88;3.70;;;;;;;;;;4994341;28;20032;-67
2022/01/20 12:14:35;;;;;;;16.98;2.58;;;;;;;;;;4994570;28;20085;-67
2022/01/20 12:17:05;;;;;;;14.30;2.22;;;;;;;;;;5002368;28;20027;-67
2022/01/20 12:19:32;;;;;;;15.73;2.90;;;;;;;;;;5010456;28;20466;-67
2022/01/20 12:21:58;;;;;;;11.77;2.55;;;;;;;;;;4981596;28;20026;-67
2022/01/20 12:24:24;;;;;;;17.90;2.47;;;;;;;;;;4992788;28;20066;-67
2022/01/20 12:26:50;;;;;;;17.98;2.58;;;;;;;;;;4993084;28;20487;-67
2022/01/20 12:29:16;;;;;;;18.30;3.25;;;;;;;;;;4997513;28;20034;-67
2022/01/20 12:31:54;;;;;;;9.25;2.05;;;;;;;;;;4994452;28;20091;-67
2022/01/20 12:34:21;;;;;;;16.48;3.65;;;;;;;;;;5004531;28;20382;-67
2022/01/20 12:36:54;;;;;;;16.33;3.28;;;;;;;;;;4989043;28;20525;-67
2022/01/20 12:39:26;;;;;;;13.18;2.53;;;;;;;;;;5000267;28;20104;-67
2022/01/20 12:41:59;;;;;;;10.32;2.20;;;;;;;;;;4992969;28;20056;-67
2022/01/20 12:44:36;;;;;;;18.58;2.63;;;;;;;;;;5000514;28;20105;-67
2022/01/20 12:47:03;;;;;;;16.75;2.85;;;;;;;;;;5000637;28;20453;-67
2022/01/20 12:49:29;;;;;;;20.42;2.97;;;;;;;;;;5002751;28;20418;-67
2022/01/20 12:51:55;;;;;;;20.95;3.00;;;;;;;;;;4990051;28;20026;-67
2022/01/20 12:54:26;;;;;;;15.43;3.10;;;;;;;;;;4990187;28;20033;-67
2022/01/20 12:56:53;;;;;;;14.20;2.90;;;;;;;;;;4999091;28;20030;-67
2022/01/20 12:59:25;;;;;;;20.52;2.70;;;;;;;;;;4998971;28;20463;-67
2022/01/20 13:01:52;;;;;;;23.85;3.22;;;;;;;;;;4995246;28;20041;-67
2022/01/20 13:04:20;;;;;;;22.55;3.80;;;;;;;;;;4994260;28;20553;-67
2022/01/20 13:06:53;;;;;;;20.17;3.05;;;;;;;;;;4997104;28;20069;-67
2022/01/20 13:09:22;;;;;;;22.08;2.75;;;;;;;;;;4988208;28;20030;-67
2022/01/20 13:11:59;;;;;;;12.52;2.50;;;;;;;;;;5001787;28;20038;-68
2022/01/20 13:14:32;;;;;;;17.42;2.63;;;;;;;;;;4997108;28;20026;-67
2022/01/20 13:16:59;;;;;;;18.63;2.65;;;;;;;;;;4995030;28;20041;-67
2022/01/20 13:19:32;;;;;;;18.08;2.58;;;;;;;;;;4995557;28;20018;-67
2022/01/20 13:21:58;;;;;;;19.92;2.55;;;;;;;;;;5001031;28;20057;-67
2022/01/20 13:24:26;;;;;;;12.68;3.13;;;;;;;;;;4994451;28;20099;-67
2022/01/20 13:26:56;;;;;;;15.57;2.30;;;;;;;;;;4995490;28;20065;-67
2022/01/20 13:29:23;;;;;;;7.88;2.15;;;;;;;;;;4974971;28;20027;-67
2022/01/20 13:31:50;;;;;;;14.10;2.83;;;;;;;;;;4988599;28;20038;-67
2022/01/20 13:34:18;;;;;;;19.27;2.85;;;;;;;;;;4994393;28;20034;-67
2022/01/20 13:36:52;;;;;;;13.43;2.42;;;;;;;;;;4998207;28;20197;-67
2022/01/20 13:39:32;;;;;;;15.93;2.70;;;;;;;;;;4994301;28;20053;-67
2022/01/20 13:42:04;;;;;;;17.95;2.38;;;;;;;;;;4993938;28;20046;-67
2022/01/20 13:47:15;;;;;;;20.10;3.17;;;;;;;;;;4993268;28;20026;-67
2022/01/20 13:49:52;;;;;;;15.20;2.70;;;;;;;;;;4994673;28;20022;-67
2022/01/20 13:52:19;;;;;;;15.18;2.58;;;;;;;;;;5000351;28;20040;-67
2022/01/20 13:54:53;;;;;;;20.70;3.42;;;;;;;;;;4994183;28;20026;-67
2022/01/20 13:57:20;;;;;;;14.10;3.22;;;;;;;;;;4989745;28;20022;-67
2022/01/20 13:59:56;;;;;;;18.17;3.05;;;;;;;;;;4996133;28;20130;-67
2022/01/20 14:02:23;;;;;;;15.38;2.80;;;;;;;;;;5002246;28;20066;-67
2022/01/20 14:04:50;;;;;;;22.67;3.88;;;;;;;;;;4991285;28;20109;-67
2022/01/20 14:07:16;;;;;;;15.30;2.58;;;;;;;;;;4993369;28;20018;-67
2022/01/20 14:09:43;;;;;;;23.10;3.63;;;;;;;;;;4998269;28;20030;-67
2022/01/20 14:12:09;;;;;;;15.73;2.70;;;;;;;;;;5000384;28;20038;-67
2022/01/20 14:14:35;;;;;;;13.88;2.65;;;;;;;;;;5001867;28;20026;-67
2022/01/20 14:17:06;;;;;;;34.33;4.30;;;;;;;;;;5008680;28;20030;-67
2022/01/20 14:19:36;;;;;;;11.75;2.50;;;;;;;;;;4995886;28;20390;-67
2022/01/20 14:22:04;;;;;;;12.48;4.28;;;;;;;;;;5004730;28;20037;-67
2022/01/20 14:24:30;;;;;;;20.35;2.72;;;;;;;;;;4976780;28;20424;-67
2022/01/20 14:27:08;;;;;;;15.85;2.58;;;;;;;;;;4985761;28;20019;-67
2022/01/20 14:29:34;;;;;;;11.40;2.58;;;;;;;;;;5002977;28;20030;-67
2022/01/20 14:32:00;;;;;;;16.58;2.50;;;;;;;;;;4996204;28;20034;-67
2022/01/20 14:34:27;;;;;;;12.95;2.10;;;;;;;;;;5002228;28;20022;-67
2022/01/20 14:36:53;;;;;;;12.77;2.38;;;;;;;;;;5006685;28;20079;-67
2022/01/20 14:39:19;;;;;;;9.82;2.85;;;;;;;;;;4995047;28;20050;-67
2022/01/20 14:41:45;;;;;;;11.80;2.17;;;;;;;;;;5000293;28;20052;-67
2022/01/20 14:44:11;;;;;;;14.00;2.65;;;;;;;;;;4993004;28;20065;-67
2022/01/20 14:46:37;;;;;;;13.70;3.05;;;;;;;;;;4999763;28;20025;-67
2022/01/20 14:49:03;;;;;;;15.57;2.95;;;;;;;;;;5001493;28;20078;-67
2022/01/20 14:51:29;;;;;;;22.27;3.05;;;;;;;;;;4985632;28;20029;-67
2022/01/20 14:53:55;;;;;;;16.58;2.30;;;;;;;;;;5004012;28;20026;-67
2022/01/20 14:56:22;;;;;;;18.90;2.60;;;;;;;;;;5004515;28;20520;-67
2022/01/20 14:58:48;;;;;;;13.93;2.83;;;;;;;;;;5005642;28;20045;-67
2022/01/20 15:01:14;;;;;;;16.17;3.28;;;;;;;;;;5001684;28;20085;-67
2022/01/20 15:03:40;;;;;;;11.20;2.22;;;;;;;;;;5002927;28;20386;-67
2022/01/20 15:06:06;;;;;;;23.33;2.95;;;;;;;;;;4985001;28;20022;-67
2022/01/20 15:08:33;;;;;;;11.13;2.20;;;;;;;;;;4993175;28;20030;-67
2022/01/20 15:11:00;;;;;;;21.42;3.70;;;;;;;;;;4993799;28;20026;-67
2022/01/20 15:13:26;;;;;;;20.55;3.80;;;;;;;;;;4993959;28;20030;-67
2022/01/20 15:15:52;;;;;;;14.40;3.50;;;;;;;;;;4997903;28;20037;-67
2022/01/20 15:18:18;;;;;;;17.88;4.03;;;;;;;;;;5000420;28;20034;-67
2022/01/20 15:20:45;;;;;;;14.60;4.05;;;;;;;;;;4987272;28;20113;-67
2022/01/20 15:23:11;;;;;;;12.13;2.70;;;;;;;;;;4996228;28;20033;-67
2022/01/20 15:25:37;;;;;;;22.25;3.88;;;;;;;;;;5000863;28;20467;-67
2022/01/20 15:28:03;;;;;;;16.25;2.75;;;;;;;;;;4992228;28;20026;-67
2022/01/20 15:30:30;;;;;;;10.68;2.25;;;;;;;;;;4993897;28;20082;-67
2022/01/20 15:32:56;;;;;;;20.02;2.97;;;;;;;;;;4998501;28;20148;-67
2022/01/20 15:35:23;;;;;;;10.90;3.50;;;;;;;;;;4991760;28;20061;-67
2022/01/20 15:37:49;;;;;;;10.93;2.72;;;;;;;;;;4993265;28;20049;-67
2022/01/20 15:40:20;;;;;;;13.80;3.88;;;;;;;;;;4999911;28;20081;-67
2022/01/20 15:42:47;;;;;;;17.35;3.28;;;;;;;;;;4992715;28;20379;-67
2022/01/20 15:45:13;;;;;;;18.20;2.90;;;;;;;;;;5001664;28;20105;-67
2022/01/20 15:47:39;;;;;;;12.35;3.13;;;;;;;;;;4992321;28;20080;-67
2022/01/20 15:50:08;;;;;;;17.38;2.83;;;;;;;;;;4991069;28;20026;-67
2022/01/20 15:52:34;;;;;;;12.80;3.70;;;;;;;;;;4990395;28;20121;-67
2022/01/20 15:55:00;;;;;;;14.68;3.55;;;;;;;;;;4994471;28;20097;-68
2022/01/20 15:57:26;;;;;;;12.80;3.15;;;;;;;;;;4993047;28;20021;-68
2022/01/20 15:59:52;;;;;;;13.27;2.63;;;;;;;;;;4994046;28;20081;-68